createdAt,value
2019-01-21T00:00:03.465Z,79.72
2019-01-21T00:01:01.970Z,79.65
2019-01-21T00:02:03.155Z,78.8
2019-01-21T00:03:02.763Z,85.85
2019-01-21T00:04:03.500Z,79.84
2019-01-21T00:05:02.346Z,87.66
2019-01-21T00:06:02.870Z,91.15
2019-01-21T00:07:02.773Z,91.15
2019-01-21T00:08:02.940Z,80.45
2019-01-21T00:09:02.840Z,80.45
2019-01-21T00:10:03.597Z,79.98
2019-01-21T00:11:03.673Z,84.7
2019-01-21T00:12:03.572Z,93.72
2019-01-21T00:13:03.501Z,93.72
2019-01-21T00:14:03.335Z,80.41
2019-01-21T00:15:03.563Z,80.06
2019-01-21T00:16:02.995Z,84.84
2019-01-21T00:17:03.130Z,84.84
2019-01-21T00:18:02.887Z,83.53
2019-01-21T00:19:02.939Z,83.53
2019-01-21T00:20:03.374Z,86.17
2019-01-21T00:21:03.227Z,86.17
2019-01-21T00:22:03.001Z,79.94
2019-01-21T00:23:02.822Z,83.09
2019-01-21T00:24:03.616Z,76.58
2019-01-21T00:25:03.071Z,84.27
2019-01-21T00:26:02.609Z,85.99
2019-01-21T00:27:03.595Z,88.97
2019-01-21T00:28:03.590Z,92.66
2019-01-21T00:29:02.835Z,94.51
2019-01-21T00:30:03.546Z,87.3
2019-01-21T00:31:03.423Z,87.3
2019-01-21T00:32:03.106Z,87.29
2019-01-21T00:33:02.945Z,79.89
2019-01-21T00:34:02.856Z,79.25
2019-01-21T00:35:02.958Z,79.25
2019-01-21T00:36:03.418Z,96.35
2019-01-21T00:37:03.787Z,79.97
2019-01-21T00:38:03.116Z,79.97
2019-01-21T00:39:03.603Z,91.28
2019-01-21T00:40:03.611Z,90.37
2019-01-21T00:41:03.395Z,90.37
2019-01-21T00:42:03.151Z,91.56
2019-01-21T00:43:02.898Z,91.56
2019-01-21T00:44:03.511Z,77.53
2019-01-21T00:45:03.125Z,88.1
2019-01-21T00:46:03.137Z,85.71
2019-01-21T00:47:03.432Z,85.71
2019-01-21T00:48:02.894Z,85.05
2019-01-21T00:49:02.284Z,88.72
2019-01-21T00:50:03.618Z,83.42
2019-01-21T00:51:02.188Z,85.44
2019-01-21T00:52:02.679Z,85.44
2019-01-21T00:53:03.488Z,91.08
2019-01-21T00:54:01.911Z,103.4
2019-01-21T00:55:03.135Z,112.16
2019-01-21T00:56:02.848Z,89.8
2019-01-21T00:57:02.969Z,90.23
2019-01-21T00:58:02.977Z,92.83
2019-01-21T00:59:03.656Z,92.83
2019-01-21T01:00:02.687Z,84.55
2019-01-21T01:01:02.903Z,88.44
2019-01-21T01:02:02.608Z,88.35
2019-01-21T01:03:03.546Z,88.35
2019-01-21T01:04:03.342Z,97.11
2019-01-21T01:05:02.881Z,97.11
2019-01-21T01:06:03.642Z,94.89
2019-01-21T01:07:03.489Z,94.89
2019-01-21T01:08:03.176Z,89.8
2019-01-21T01:09:02.861Z,89.8
2019-01-21T01:10:03.383Z,90.51
2019-01-21T01:11:03.210Z,91.12
2019-01-21T01:12:03.288Z,85.21
2019-01-21T01:13:02.024Z,91.08
2019-01-21T01:14:03.285Z,93.48
2019-01-21T01:15:02.659Z,98.64
2019-01-21T01:16:02.586Z,98.64
2019-01-21T01:17:03.405Z,90.71
2019-01-21T01:18:02.739Z,85.79
2019-01-21T01:19:03.409Z,91.07
2019-01-21T01:20:03.279Z,91.07
2019-01-21T01:21:02.907Z,90.46
2019-01-21T01:22:02.944Z,95.64
2019-01-21T01:23:03.036Z,95.64
2019-01-21T01:24:02.819Z,100.6
2019-01-21T01:25:03.283Z,87.58
2019-01-21T01:26:03.362Z,94.6
2019-01-21T01:27:03.208Z,94.6
2019-01-21T01:28:02.848Z,96.78
2019-01-21T01:29:03.198Z,87.81
2019-01-21T01:30:03.389Z,94.6
2019-01-21T01:31:03.436Z,95.23
2019-01-21T01:32:03.610Z,84.75
2019-01-21T01:33:03.136Z,84.75
2019-01-21T01:34:03.584Z,92.57
2019-01-21T01:35:02.520Z,95.11
2019-01-21T01:36:01.878Z,88.35
2019-01-21T01:37:03.082Z,88.35
2019-01-21T01:38:02.091Z,82.88
2019-01-21T01:39:03.673Z,87.49
2019-01-21T01:40:03.721Z,80.86
2019-01-21T01:41:02.968Z,89.76
2019-01-21T01:42:03.035Z,90.02
2019-01-21T01:43:02.710Z,90.02
2019-01-21T01:44:03.323Z,87.34
2019-01-21T01:45:02.811Z,84.89
2019-01-21T01:46:02.652Z,84.89
2019-01-21T01:47:03.623Z,94.84
2019-01-21T01:48:02.783Z,90.87
2019-01-21T01:49:02.639Z,94.04
2019-01-21T01:50:03.131Z,94.04
2019-01-21T01:51:03.501Z,92.96
2019-01-21T01:52:02.706Z,89.32
2019-01-21T01:53:02.997Z,91.95
2019-01-21T01:54:02.902Z,91.95
2019-01-21T01:55:03.587Z,91.09
2019-01-21T01:56:02.966Z,88.25
2019-01-21T01:57:02.765Z,84.79
2019-01-21T01:58:02.755Z,84.79
2019-01-21T01:59:02.933Z,84.79
2019-01-21T02:00:02.982Z,87.07
2019-01-21T02:01:01.910Z,88.09
2019-01-21T02:02:03.106Z,88.09
2019-01-21T02:03:03.490Z,98.46
2019-01-21T02:04:02.631Z,82
2019-01-21T02:05:03.496Z,83.64
2019-01-21T02:06:03.764Z,83.29
2019-01-21T02:07:03.402Z,87.89
2019-01-21T02:08:02.931Z,87.89
2019-01-21T02:09:03.404Z,86.91
2019-01-21T02:10:03.083Z,90.92
2019-01-21T02:11:03.218Z,92.14
2019-01-21T02:12:02.876Z,92.14
2019-01-21T02:13:02.750Z,96.18
2019-01-21T02:14:03.510Z,96.18
2019-01-21T02:15:03.272Z,89.35
2019-01-21T02:16:03.356Z,81.6
2019-01-21T02:17:02.862Z,96.16
2019-01-21T02:18:02.765Z,96.16
2019-01-21T02:19:02.965Z,81.33
2019-01-21T02:20:03.260Z,88.34
2019-01-21T02:21:02.882Z,85.96
2019-01-21T02:22:02.859Z,84.72
2019-01-21T02:23:03.347Z,94.29
2019-01-21T02:24:02.184Z,88.24
2019-01-21T02:25:03.502Z,104.38
2019-01-21T02:26:02.943Z,89.93
2019-01-21T02:27:02.908Z,89.93
2019-01-21T02:28:02.822Z,107.05
2019-01-21T02:29:02.985Z,99.71
2019-01-21T02:30:03.078Z,124.56
2019-01-21T02:31:03.286Z,96.78
2019-01-21T02:32:02.969Z,96.78
2019-01-21T02:33:03.501Z,86.26
2019-01-21T02:34:02.803Z,90.18
2019-01-21T02:35:03.496Z,95.25
2019-01-21T02:36:02.540Z,95.25
2019-01-21T02:37:03.693Z,94.5
2019-01-21T02:38:03.143Z,94.5
2019-01-21T02:39:03.580Z,99.28
2019-01-21T02:40:03.082Z,93.55
2019-01-21T02:41:03.100Z,87.05
2019-01-21T02:42:03.519Z,85.82
2019-01-21T02:43:03.109Z,85.82
2019-01-21T02:44:02.829Z,85.82
2019-01-21T02:45:02.824Z,119.12
2019-01-21T02:46:01.862Z,104.62
2019-01-21T02:47:02.737Z,79.62
2019-01-21T02:48:03.073Z,88.73
2019-01-21T02:49:03.198Z,107.89
2019-01-21T02:50:03.106Z,100.92
2019-01-21T02:51:02.636Z,110.62
2019-01-21T02:52:03.354Z,86.66
2019-01-21T02:53:03.579Z,94.14
2019-01-21T02:54:03.631Z,82.72
2019-01-21T02:55:02.870Z,87.46
2019-01-21T02:56:02.717Z,103.82
2019-01-21T02:57:03.400Z,81.79
2019-01-21T02:58:03.204Z,118.96
2019-01-21T02:59:03.049Z,87.53
2019-01-21T03:00:03.563Z,87.53
2019-01-21T03:01:03.114Z,90.4
2019-01-21T03:02:04.836Z,92.85
2019-01-21T03:03:02.865Z,87.37
2019-01-21T03:04:03.438Z,123.24
2019-01-21T03:05:03.172Z,89.72
2019-01-21T03:06:02.668Z,95.45
2019-01-21T03:07:02.808Z,102.51
2019-01-21T03:08:01.808Z,83.96
2019-01-21T03:09:03.140Z,263.95
2019-01-21T03:10:03.669Z,166.32
2019-01-21T03:11:03.748Z,104.93
2019-01-21T03:12:02.617Z,245.28
2019-01-21T03:13:03.079Z,143.63
2019-01-21T03:14:03.382Z,116.41
2019-01-21T03:15:03.624Z,95.28
2019-01-21T03:16:03.112Z,118.29
2019-01-21T03:17:03.186Z,118.29
2019-01-21T03:18:07.870Z,124.64
2019-01-21T03:19:03.483Z,124.64
2019-01-21T03:20:03.768Z,193.45
2019-01-21T03:21:02.882Z,193.45
2019-01-21T03:22:03.341Z,137.89
2019-01-21T03:23:03.554Z,137.89
2019-01-21T03:24:03.416Z,126.44
2019-01-21T03:25:03.318Z,90.84
2019-01-21T03:26:03.000Z,91.79
2019-01-21T03:27:02.865Z,91.79
2019-01-21T03:28:03.422Z,116.85
2019-01-21T03:29:02.989Z,116.85
2019-01-21T03:30:03.145Z,117.73
2019-01-21T03:31:02.572Z,100.54
2019-01-21T03:32:03.257Z,100.54
2019-01-21T03:33:03.189Z,139.29
2019-01-21T03:34:03.577Z,194.19
2019-01-21T03:35:03.151Z,194.19
2019-01-21T03:36:03.698Z,113.42
2019-01-21T03:37:03.597Z,109.85
2019-01-21T03:38:02.918Z,100.27
2019-01-21T03:39:03.408Z,113.19
2019-01-21T03:40:03.077Z,205.33
2019-01-21T03:41:03.099Z,205.33
2019-01-21T03:42:03.034Z,94.61
2019-01-21T03:43:03.151Z,169.18
2019-01-21T03:44:02.727Z,208.77
2019-01-21T03:45:03.575Z,208.77
2019-01-21T03:46:03.647Z,156.12
2019-01-21T03:47:02.717Z,156.12
2019-01-21T03:48:04.308Z,100.54
2019-01-21T03:49:03.440Z,103.8
2019-01-21T03:50:03.295Z,97.54
2019-01-21T03:51:03.381Z,97.54
2019-01-21T03:52:02.704Z,121.75
2019-01-21T03:53:02.812Z,97.18
2019-01-21T03:54:03.190Z,98.32
2019-01-21T03:55:01.909Z,88.16
2019-01-21T03:56:03.093Z,83.72
2019-01-21T03:57:02.805Z,102.75
2019-01-21T03:58:02.796Z,102.46
2019-01-21T03:59:03.154Z,100.51
2019-01-21T04:00:03.353Z,81.74
2019-01-21T04:01:03.543Z,101.27
2019-01-21T04:02:02.473Z,136.28
2019-01-21T04:03:03.537Z,86.73
2019-01-21T04:04:03.520Z,93.44
2019-01-21T04:05:03.183Z,83.83
2019-01-21T04:06:03.459Z,90.68
2019-01-21T04:07:03.217Z,94.36
2019-01-21T04:08:02.973Z,87.69
2019-01-21T04:09:02.731Z,87.69
2019-01-21T04:10:02.851Z,94.75
2019-01-21T04:11:02.631Z,91.46
2019-01-21T04:12:02.747Z,86.86
2019-01-21T04:13:03.653Z,86.86
2019-01-21T04:14:02.737Z,84.94
2019-01-21T04:15:03.444Z,84.94
2019-01-21T04:16:03.273Z,94.19
2019-01-21T04:17:03.330Z,81.32
2019-01-21T04:18:03.406Z,81.32
2019-01-21T04:19:03.292Z,81.11
2019-01-21T04:20:02.785Z,81.11
2019-01-21T04:21:02.236Z,86.82
2019-01-21T04:22:02.770Z,87.29
2019-01-21T04:23:03.334Z,89.46
2019-01-21T04:24:02.883Z,83.29
2019-01-21T04:25:03.239Z,82.73
2019-01-21T04:26:02.891Z,79.45
2019-01-21T04:27:02.842Z,78.02
2019-01-21T04:28:03.651Z,83.55
2019-01-21T04:29:03.366Z,77.35
2019-01-21T04:30:03.060Z,76.6
2019-01-21T04:31:03.611Z,76.6
2019-01-21T04:32:03.404Z,83.71
2019-01-21T04:33:03.149Z,83.71
2019-01-21T04:34:02.470Z,74.82
2019-01-21T04:35:02.915Z,79.93
2019-01-21T04:36:02.701Z,78.21
2019-01-21T04:37:03.341Z,78.21
2019-01-21T04:38:03.326Z,81.48
2019-01-21T04:39:02.856Z,81.48
2019-01-21T04:40:03.651Z,84.66
2019-01-21T04:41:03.122Z,82.55
2019-01-21T04:42:03.555Z,72.24
2019-01-21T04:43:03.336Z,72.24
2019-01-21T04:44:03.045Z,70.42
2019-01-21T04:45:02.818Z,70.42
2019-01-21T04:46:03.435Z,70.97
2019-01-21T04:47:03.665Z,74.01
2019-01-21T04:48:03.424Z,76.49
2019-01-21T04:49:03.460Z,71.2
2019-01-21T04:50:03.568Z,68.51
2019-01-21T04:51:02.945Z,79.02
2019-01-21T04:52:02.809Z,75.64
2019-01-21T04:53:03.198Z,68.65
2019-01-21T04:54:02.928Z,68.65
2019-01-21T04:55:03.482Z,70.76
2019-01-21T04:56:02.697Z,76.55
2019-01-21T04:57:03.329Z,76.55
2019-01-21T04:58:03.302Z,73.84
2019-01-21T04:59:02.833Z,72.6
2019-01-21T05:00:03.061Z,70.62
2019-01-21T05:01:02.833Z,70.62
2019-01-21T05:02:02.746Z,74.11
2019-01-21T05:03:03.836Z,74.11
2019-01-21T05:04:03.563Z,76.5
2019-01-21T05:05:03.195Z,70.26
2019-01-21T05:06:03.546Z,69.13
2019-01-21T05:07:03.204Z,68.56
2019-01-21T05:08:03.178Z,68.56
2019-01-21T05:09:02.951Z,69.56
2019-01-21T05:10:03.417Z,69.56
2019-01-21T05:11:01.853Z,67.47
2019-01-21T05:12:03.360Z,65.77
2019-01-21T05:13:03.130Z,60.59
2019-01-21T05:14:03.002Z,71.28
2019-01-21T05:15:03.563Z,65.54
2019-01-21T05:16:02.752Z,68.92
2019-01-21T05:17:03.471Z,79.92
2019-01-21T05:18:02.829Z,70.55
2019-01-21T05:19:03.705Z,73.24
2019-01-21T05:20:03.159Z,71.08
2019-01-21T05:21:02.796Z,61.7
2019-01-21T05:22:03.014Z,74.13
2019-01-21T05:23:02.915Z,71.05
2019-01-21T05:24:03.182Z,68.65
2019-01-21T05:25:02.840Z,68.65
2019-01-21T05:26:03.272Z,70.87
2019-01-21T05:27:02.719Z,70.87
2019-01-21T05:28:03.017Z,66.8
2019-01-21T05:29:02.852Z,61.78
2019-01-21T05:30:03.160Z,67
2019-01-21T05:31:02.922Z,67
2019-01-21T05:32:03.598Z,69.02
2019-01-21T05:33:03.242Z,70.28
2019-01-21T05:34:02.620Z,62.82
2019-01-21T05:35:03.289Z,62.82
2019-01-21T05:36:03.046Z,71.47
2019-01-21T05:37:02.902Z,71.74
2019-01-21T05:38:03.295Z,69.98
2019-01-21T05:39:02.531Z,71.39
2019-01-21T05:40:02.807Z,72.58
2019-01-21T05:41:02.152Z,73.34
2019-01-21T05:42:02.729Z,71.35
2019-01-21T05:43:03.453Z,71.35
2019-01-21T05:44:03.478Z,74.78
2019-01-21T05:45:02.777Z,65.38
2019-01-21T05:46:03.121Z,63.16
2019-01-21T05:47:03.670Z,68.14
2019-01-21T05:48:03.663Z,74.28
2019-01-21T05:49:03.519Z,79.09
2019-01-21T05:50:02.885Z,81.86
2019-01-21T05:51:03.068Z,75.78
2019-01-21T05:52:03.344Z,78.04
2019-01-21T05:53:03.228Z,75.52
2019-01-21T05:54:02.877Z,70.08
2019-01-21T05:55:02.750Z,70.82
2019-01-21T05:56:03.521Z,70.82
2019-01-21T05:57:03.071Z,78.81
2019-01-21T05:58:03.615Z,78.81
2019-01-21T05:59:03.404Z,78.81
2019-01-21T06:00:03.215Z,64.58
2019-01-21T06:01:03.412Z,71.14
2019-01-21T06:02:03.331Z,72.36
2019-01-21T06:03:02.670Z,74.13
2019-01-21T06:04:03.567Z,65.92
2019-01-21T06:05:03.656Z,69.05
2019-01-21T06:06:02.668Z,69.05
2019-01-21T06:07:03.543Z,73.83
2019-01-21T06:08:03.221Z,69.24
2019-01-21T06:09:02.852Z,70.58
2019-01-21T06:10:02.305Z,74.54
2019-01-21T06:11:02.832Z,72.49
2019-01-21T06:12:03.756Z,75.99
2019-01-21T06:13:02.857Z,72.31
2019-01-21T06:14:02.994Z,65.84
2019-01-21T06:15:03.453Z,69.88
2019-01-21T06:16:02.730Z,62.92
2019-01-21T06:17:03.425Z,69.63
2019-01-21T06:18:03.224Z,67.94
2019-01-21T06:19:03.169Z,67.76
2019-01-21T06:20:03.113Z,67.76
2019-01-21T06:21:02.888Z,67.03
2019-01-21T06:22:03.665Z,71.65
2019-01-21T06:23:03.376Z,80.02
2019-01-21T06:24:03.332Z,80.02
2019-01-21T06:25:02.853Z,70.53
2019-01-21T06:26:03.245Z,77.37
2019-01-21T06:27:02.831Z,76.56
2019-01-21T06:28:03.063Z,72.13
2019-01-21T06:29:03.028Z,68.75
2019-01-21T06:30:02.911Z,68.75
2019-01-21T06:31:02.851Z,68.31
2019-01-21T06:32:03.501Z,74.93
2019-01-21T06:33:04.362Z,78.39
2019-01-21T06:34:02.635Z,78.39
2019-01-21T06:35:03.806Z,70.49
2019-01-21T06:36:03.626Z,68.51
2019-01-21T06:37:03.756Z,67.64
2019-01-21T06:38:03.594Z,64.74
2019-01-21T06:39:03.592Z,68.96
2019-01-21T06:40:03.376Z,65.85
2019-01-21T06:41:02.711Z,69.71
2019-01-21T06:42:02.885Z,64.82
2019-01-21T06:43:02.883Z,77.39
2019-01-21T06:44:03.457Z,77.39
2019-01-21T06:45:02.919Z,66.09
2019-01-21T06:46:03.309Z,66.09
2019-01-21T06:47:02.976Z,64.24
2019-01-21T06:48:02.856Z,64.24
2019-01-21T06:49:04.706Z,68.68
2019-01-21T06:50:02.924Z,67.62
2019-01-21T06:51:02.867Z,69.18
2019-01-21T06:52:03.601Z,73.42
2019-01-21T06:53:02.785Z,74.66
2019-01-21T06:54:02.939Z,73.98
2019-01-21T06:55:03.952Z,73.98
2019-01-21T06:56:03.375Z,77.9
2019-01-21T06:57:03.113Z,77.89
2019-01-21T06:58:02.887Z,77.89
2019-01-21T06:59:02.041Z,72.49
2019-01-21T07:00:03.552Z,75.53
2019-01-21T07:01:03.691Z,67.04
2019-01-21T07:02:02.639Z,69.38
2019-01-21T07:03:03.223Z,68.85
2019-01-21T07:04:02.698Z,69.09
2019-01-21T07:05:03.746Z,69.75
2019-01-21T07:06:03.083Z,69.75
2019-01-21T07:08:03.160Z,73.44
2019-01-21T07:09:03.197Z,73.44
2019-01-21T07:10:03.516Z,68.36
2019-01-21T07:11:02.789Z,72.59
2019-01-21T07:12:02.851Z,72.59
2019-01-21T07:13:03.224Z,67.88
2019-01-21T07:14:03.550Z,71.22
2019-01-21T07:15:03.100Z,71.95
2019-01-21T07:16:02.849Z,71.95
2019-01-21T07:17:02.832Z,69.61
2019-01-21T07:18:03.398Z,74.71
2019-01-21T07:19:02.731Z,74.04
2019-01-21T07:20:03.021Z,69.97
2019-01-21T07:21:02.702Z,71.9
2019-01-21T07:22:03.147Z,70.51
2019-01-21T07:23:03.421Z,65.92
2019-01-21T07:24:03.462Z,75.11
2019-01-21T07:25:01.812Z,73.25
2019-01-21T07:26:03.560Z,64.29
2019-01-21T07:27:03.320Z,75.9
2019-01-21T07:28:02.977Z,74.89
2019-01-21T07:29:02.703Z,74.89
2019-01-21T07:30:04.336Z,65.87
2019-01-21T07:31:02.926Z,69.49
2019-01-21T07:32:02.978Z,69.49
2019-01-21T07:33:02.743Z,67.89
2019-01-21T07:34:03.062Z,71.32
2019-01-21T07:35:03.089Z,71.32
2019-01-21T07:36:02.929Z,67.25
2019-01-21T07:37:02.826Z,70.58
2019-01-21T07:38:03.314Z,70.41
2019-01-21T07:39:02.901Z,70.41
2019-01-21T07:40:03.068Z,72.67
2019-01-21T07:41:02.842Z,72.48
2019-01-21T07:42:03.085Z,63.96
2019-01-21T07:43:03.129Z,65.36
2019-01-21T07:44:03.652Z,64.02
2019-01-21T07:45:03.172Z,63.68
2019-01-21T07:46:02.009Z,67.78
2019-01-21T07:47:02.404Z,72.21
2019-01-21T07:48:03.446Z,65.32
2019-01-21T07:49:03.007Z,68.92
2019-01-21T07:50:03.072Z,76.51
2019-01-21T07:51:02.870Z,68.1
2019-01-21T07:52:02.263Z,63.74
2019-01-21T07:53:03.377Z,63.74
2019-01-21T07:54:03.264Z,64.62
2019-01-21T07:55:02.679Z,66.76
2019-01-21T07:56:02.786Z,68.27
2019-01-21T07:57:02.862Z,68.27
2019-01-21T07:58:03.093Z,72.09
2019-01-21T07:59:03.048Z,66.99
2019-01-21T08:00:02.315Z,69.02
2019-01-21T08:01:03.225Z,72.73
2019-01-21T08:02:02.852Z,74.95
2019-01-21T08:03:03.386Z,68.08
2019-01-21T08:04:02.800Z,62.56
2019-01-21T08:05:03.523Z,78.21
2019-01-21T08:06:03.437Z,65.44
2019-01-21T08:07:03.482Z,64.06
2019-01-21T08:08:03.445Z,73.21
2019-01-21T08:09:02.776Z,79.91
2019-01-21T08:10:03.367Z,70.16
2019-01-21T08:11:03.235Z,76.78
2019-01-21T08:12:02.952Z,71.72
2019-01-21T08:13:03.513Z,77.06
2019-01-21T08:14:03.290Z,77.06
2019-01-21T08:15:02.918Z,68.99
2019-01-21T08:16:03.170Z,68.99
2019-01-21T08:17:02.913Z,68.32
2019-01-21T08:18:03.007Z,68.32
2019-01-21T08:19:03.418Z,69.04
2019-01-21T08:20:03.296Z,69.04
2019-01-21T08:21:03.201Z,67.04
2019-01-21T08:22:02.670Z,67.04
2019-01-21T08:23:02.911Z,69.89
2019-01-21T08:24:02.779Z,67.78
2019-01-21T08:25:01.627Z,70.88
2019-01-21T08:26:02.796Z,70.88
2019-01-21T08:27:03.087Z,75.05
2019-01-21T08:28:03.473Z,73.45
2019-01-21T08:29:03.280Z,73.45
2019-01-21T08:30:03.312Z,68.18
2019-01-21T08:31:03.398Z,68.06
2019-01-21T08:32:02.730Z,71.1
2019-01-21T08:33:02.691Z,70.12
2019-01-21T08:34:02.810Z,67.4
2019-01-21T08:35:03.446Z,68.72
2019-01-21T08:36:03.392Z,68.72
2019-01-21T08:37:03.482Z,70.46
2019-01-21T08:38:03.506Z,70.46
2019-01-21T08:39:03.284Z,67
2019-01-21T08:40:03.324Z,67.99
2019-01-21T08:41:03.544Z,65.55
2019-01-21T08:42:02.588Z,65.55
2019-01-21T08:43:02.673Z,65.71
2019-01-21T08:44:03.071Z,65.71
2019-01-21T08:45:03.466Z,64.36
2019-01-21T08:46:03.374Z,70.25
2019-01-21T08:47:03.424Z,68.5
2019-01-21T08:48:02.354Z,77.04
2019-01-21T08:49:01.912Z,69.59
2019-01-21T08:50:03.133Z,62.71
2019-01-21T08:51:03.244Z,70.33
2019-01-21T08:52:03.007Z,74.56
2019-01-21T08:53:03.389Z,68.29
2019-01-21T08:54:02.653Z,68.64
2019-01-21T08:55:02.896Z,67.31
2019-01-21T08:56:03.479Z,75.55
2019-01-21T08:57:04.529Z,68.84
2019-01-21T08:58:04.594Z,64.25
2019-01-21T08:59:02.634Z,64.25
2019-01-21T09:00:03.465Z,68.09
2019-01-21T09:01:02.681Z,72.93
2019-01-21T09:02:03.517Z,68.18
2019-01-21T09:03:03.097Z,68.94
2019-01-21T09:04:03.265Z,68.94
2019-01-21T09:05:03.500Z,77.85
2019-01-21T09:06:02.785Z,66.6
2019-01-21T09:07:03.120Z,64.31
2019-01-21T09:08:03.575Z,61.34
2019-01-21T09:09:02.898Z,61.34
2019-01-21T09:10:02.694Z,61.34
2019-01-21T09:11:03.565Z,66.46
2019-01-21T09:12:02.922Z,72.39
2019-01-21T09:13:02.593Z,72.39
2019-01-21T09:14:03.357Z,71.44
2019-01-21T09:15:03.360Z,68.75
2019-01-21T09:16:03.197Z,66.99
2019-01-21T09:17:03.535Z,62.31
2019-01-21T09:18:02.664Z,64.71
2019-01-21T09:19:03.498Z,68.45
2019-01-21T09:20:03.232Z,72.06
2019-01-21T09:21:03.091Z,68.12
2019-01-21T09:22:03.463Z,61.8
2019-01-21T09:23:02.806Z,61.8
2019-01-21T09:24:02.646Z,66.07
2019-01-21T09:25:03.663Z,64.52
2019-01-21T09:26:03.639Z,60.02
2019-01-21T09:27:03.761Z,60.02
2019-01-21T09:28:03.085Z,68.48
2019-01-21T09:29:03.598Z,63.21
2019-01-21T09:30:03.643Z,63.21
2019-01-21T09:31:03.378Z,62.05
2019-01-21T09:32:03.419Z,62.05
2019-01-21T09:33:03.407Z,61.92
2019-01-21T09:34:03.597Z,63.4
2019-01-21T09:35:02.674Z,63.4
2019-01-21T09:36:02.931Z,56.5
2019-01-21T09:37:03.553Z,56.18
2019-01-21T09:38:02.477Z,55.57
2019-01-21T09:39:03.066Z,55.62
2019-01-21T09:40:03.396Z,59.06
2019-01-21T09:41:02.820Z,57.91
2019-01-21T09:42:03.021Z,51.11
2019-01-21T09:43:02.910Z,51.53
2019-01-21T09:44:02.853Z,51.53
2019-01-21T09:45:03.598Z,51.32
2019-01-21T09:46:03.164Z,53.41
2019-01-21T09:47:03.567Z,49.59
2019-01-21T09:48:02.740Z,49.59
2019-01-21T09:49:02.949Z,51.65
2019-01-21T09:50:03.094Z,51.65
2019-01-21T09:51:02.703Z,52.75
2019-01-21T09:52:03.077Z,49.69
2019-01-21T09:53:03.010Z,48.85
2019-01-21T09:54:02.952Z,48.85
2019-01-21T09:55:03.660Z,45.13
2019-01-21T09:56:02.885Z,45.13
2019-01-21T09:57:02.828Z,47.17
2019-01-21T09:58:02.664Z,47.29
2019-01-21T09:59:03.154Z,47.29
2019-01-21T10:00:02.088Z,47.31
2019-01-21T10:01:02.733Z,51.19
2019-01-21T10:02:02.737Z,46.82
2019-01-21T10:03:02.921Z,48.95
2019-01-21T10:04:03.451Z,42.15
2019-01-21T10:05:02.847Z,45.89
2019-01-21T10:06:03.699Z,45.51
2019-01-21T10:07:02.672Z,47.64
2019-01-21T10:08:02.880Z,47.64
2019-01-21T10:09:02.755Z,45.14
2019-01-21T10:10:03.802Z,40.34
2019-01-21T10:11:03.442Z,49.75
2019-01-21T10:12:03.139Z,49.75
2019-01-21T10:13:03.510Z,47.25
2019-01-21T10:14:02.964Z,47.25
2019-01-21T10:15:02.900Z,44.65
2019-01-21T10:16:02.680Z,43.67
2019-01-21T10:17:03.180Z,44.66
2019-01-21T10:18:03.373Z,44.66
2019-01-21T10:19:03.368Z,43.21
2019-01-21T10:20:03.091Z,50.62
2019-01-21T10:21:02.947Z,50.86
2019-01-21T10:22:02.989Z,50.86
2019-01-21T10:23:02.991Z,46.02
2019-01-21T10:24:02.816Z,43.74
2019-01-21T10:25:03.336Z,42.86
2019-01-21T10:26:02.950Z,44.26
2019-01-21T10:27:02.844Z,44.3
2019-01-21T10:28:02.919Z,44.28
2019-01-21T10:29:02.742Z,44.43
2019-01-21T10:30:03.653Z,43.65
2019-01-21T10:31:03.137Z,44.73
2019-01-21T10:32:03.278Z,41.81
2019-01-21T10:33:03.127Z,41.71
2019-01-21T10:34:02.589Z,49.72
2019-01-21T10:35:02.635Z,43.02
2019-01-21T10:36:03.154Z,43.02
2019-01-21T10:37:02.838Z,47.24
2019-01-21T10:38:03.522Z,47.24
2019-01-21T10:39:03.486Z,43.69
2019-01-21T10:40:03.148Z,41.67
2019-01-21T10:41:03.279Z,41.84
2019-01-21T10:42:02.987Z,41.82
2019-01-21T10:43:02.598Z,48.84
2019-01-21T10:44:02.489Z,41.54
2019-01-21T10:45:03.418Z,41.54
2019-01-21T10:46:03.032Z,41.54
2019-01-21T10:47:03.724Z,40.01
2019-01-21T10:48:03.445Z,40.01
2019-01-21T10:49:03.164Z,39.04
2019-01-21T10:50:02.844Z,39.04
2019-01-21T10:51:03.573Z,43.55
2019-01-21T10:52:02.837Z,43.09
2019-01-21T10:53:02.986Z,43.09
2019-01-21T10:55:03.011Z,61.58
2019-01-21T10:56:03.501Z,41.44
2019-01-21T10:57:03.543Z,42.86
2019-01-21T10:58:03.540Z,43.57
2019-01-21T10:59:02.702Z,43.11
2019-01-21T11:00:02.734Z,43.11
2019-01-21T11:01:03.069Z,54.56
2019-01-21T11:02:02.947Z,54.56
2019-01-21T11:03:02.981Z,42.32
2019-01-21T11:04:03.725Z,42.32
2019-01-21T11:05:02.849Z,38.61
2019-01-21T11:07:02.980Z,40.21
2019-01-21T11:08:02.874Z,40.21
2019-01-21T11:09:02.856Z,39.53
2019-01-21T11:10:01.994Z,38.12
2019-01-21T11:11:03.519Z,41.25
2019-01-21T11:12:03.480Z,36.78
2019-01-21T11:13:02.784Z,45.12
2019-01-21T11:14:02.784Z,40.92
2019-01-21T11:15:03.438Z,37.11
2019-01-21T11:16:02.893Z,43.05
2019-01-21T11:17:02.916Z,38.75
2019-01-21T11:18:03.147Z,38.78
2019-01-21T11:19:03.684Z,39.26
2019-01-21T11:20:04.026Z,39.26
2019-01-21T11:21:03.408Z,38.37
2019-01-21T11:22:03.118Z,38.37
2019-01-21T11:23:02.827Z,38.69
2019-01-21T11:24:03.572Z,38.69
2019-01-21T11:25:03.673Z,39.58
2019-01-21T11:26:03.413Z,39.58
2019-01-21T11:27:02.616Z,37.39
2019-01-21T11:28:03.409Z,37.39
2019-01-21T11:29:02.641Z,36.88
2019-01-21T11:30:03.601Z,47.58
2019-01-21T11:31:02.956Z,39.56
2019-01-21T11:32:03.062Z,39.56
2019-01-21T11:33:02.779Z,38.32
2019-01-21T11:34:01.798Z,41.74
2019-01-21T11:35:03.255Z,40.84
2019-01-21T11:36:03.120Z,38.48
2019-01-21T11:37:03.062Z,40.3
2019-01-21T11:38:02.924Z,41.62
2019-01-21T11:39:03.550Z,39.99
2019-01-21T11:40:02.653Z,35.5
2019-01-21T11:41:03.735Z,43.18
2019-01-21T11:42:03.581Z,43.39
2019-01-21T11:43:02.813Z,39.99
2019-01-21T11:44:03.627Z,42.71
2019-01-21T11:45:03.779Z,39.64
2019-01-21T11:46:03.626Z,40.61
2019-01-21T11:47:02.757Z,41.52
2019-01-21T11:48:03.251Z,39.31
2019-01-21T11:49:02.717Z,36.83
2019-01-21T11:50:03.620Z,40.89
2019-01-21T11:51:02.632Z,43.91
2019-01-21T11:52:02.985Z,43.91
2019-01-21T11:53:03.259Z,38.42
2019-01-21T11:54:03.310Z,38.42
2019-01-21T11:55:03.279Z,42.15
2019-01-21T11:56:02.690Z,41.09
2019-01-21T11:57:02.929Z,37.51
2019-01-21T11:58:03.259Z,37.51
2019-01-21T11:59:02.708Z,39.61
2019-01-21T12:00:03.222Z,42.95
2019-01-21T12:01:02.711Z,43.88
2019-01-21T12:02:01.713Z,45.05
2019-01-21T12:03:03.535Z,40.98
2019-01-21T12:04:03.217Z,38.49
2019-01-21T12:05:03.247Z,41.22
2019-01-21T12:06:03.538Z,36.57
2019-01-21T12:07:03.322Z,39.74
2019-01-21T12:08:03.323Z,37.23
2019-01-21T12:09:03.076Z,37.92
2019-01-21T12:10:03.140Z,37.92
2019-01-21T12:11:03.006Z,38.38
2019-01-21T12:12:03.539Z,38.38
2019-01-21T12:13:02.726Z,43.25
2019-01-21T12:14:03.045Z,37.55
2019-01-21T12:15:02.927Z,41.07
2019-01-21T12:16:03.032Z,41.07
2019-01-21T12:17:02.912Z,38.65
2019-01-21T12:18:02.608Z,47.65
2019-01-21T12:19:02.413Z,45.29
2019-01-21T12:20:01.929Z,43.14
2019-01-21T12:21:01.754Z,42.52
2019-01-21T12:22:03.703Z,40.48
2019-01-21T12:23:02.686Z,40.48
2019-01-21T12:24:03.128Z,42.55
2019-01-21T12:25:02.972Z,43.28
2019-01-21T12:26:03.229Z,40.51
2019-01-21T12:27:03.011Z,40.51
2019-01-21T12:28:03.571Z,39.75
2019-01-21T12:29:02.834Z,44.74
2019-01-21T12:30:03.724Z,41.07
2019-01-21T12:31:03.433Z,41.07
2019-01-21T12:32:02.887Z,39.88
2019-01-21T12:33:03.823Z,39.88
2019-01-21T12:34:03.555Z,42.83
2019-01-21T12:35:03.364Z,42.83
2019-01-21T12:36:02.626Z,40.44
2019-01-21T12:37:03.175Z,40.44
2019-01-21T12:38:02.568Z,40.56
2019-01-21T12:39:03.447Z,40.56
2019-01-21T12:40:03.191Z,51.91
2019-01-21T12:41:02.674Z,41.94
2019-01-21T12:42:03.001Z,37.69
2019-01-21T12:43:03.111Z,41.74
2019-01-21T12:44:02.780Z,41.51
2019-01-21T12:45:03.228Z,41.51
2019-01-21T12:46:03.099Z,42.53
2019-01-21T12:47:02.710Z,45.2
2019-01-21T12:48:03.112Z,36.01
2019-01-21T12:49:03.442Z,40.9
2019-01-21T12:50:03.579Z,45.34
2019-01-21T12:51:03.496Z,45.34
2019-01-21T12:52:03.336Z,41.02
2019-01-21T12:53:03.331Z,42.34
2019-01-21T12:54:03.206Z,42.34
2019-01-21T12:55:03.286Z,40.9